sensor_id;sensor_type;location;lat;lon;timestamp;P1;durP1;ratioP1;P2;durP2;ratioP2
8319;SDS011;4197;42.130;24.746;2022-08-20T00:02:11;11.30;;;7.63;;
8319;SDS011;4197;42.130;24.746;2022-08-20T00:04:41;10.70;;;8.35;;
8319;SDS011;4197;42.130;24.746;2022-08-20T00:07:09;12.77;;;8.90;;
8319;SDS011;4197;42.130;24.746;2022-08-20T00:09:37;9.88;;;7.65;;
8319;SDS011;4197;42.130;24.746;2022-08-20T00:12:07;11.90;;;8.25;;
8319;SDS011;4197;42.130;24.746;2022-08-20T00:14:36;11.60;;;8.30;;
8319;SDS011;4197;42.130;24.746;2022-08-20T00:17:04;12.15;;;8.57;;
8319;SDS011;4197;42.130;24.746;2022-08-20T00:19:33;11.48;;;8.73;;
8319;SDS011;4197;42.130;24.746;2022-08-20T00:22:02;14.93;;;9.18;;
8319;SDS011;4197;42.130;24.746;2022-08-20T00:24:30;14.32;;;8.60;;
8319;SDS011;4197;42.130;24.746;2022-08-20T00:27:00;13.93;;;8.68;;
8319;SDS011;4197;42.130;24.746;2022-08-20T00:29:28;11.10;;;7.68;;
8319;SDS011;4197;42.130;24.746;2022-08-20T00:31:56;10.20;;;8.25;;
8319;SDS011;4197;42.130;24.746;2022-08-20T00:34:25;10.10;;;8.10;;
8319;SDS011;4197;42.130;24.746;2022-08-20T00:36:54;13.02;;;8.10;;
8319;SDS011;4197;42.130;24.746;2022-08-20T00:39:23;14.38;;;9.07;;
8319;SDS011;4197;42.130;24.746;2022-08-20T00:41:51;12.40;;;8.63;;
8319;SDS011;4197;42.130;24.746;2022-08-20T00:44:20;13.70;;;9.13;;
8319;SDS011;4197;42.130;24.746;2022-08-20T00:46:50;12.90;;;8.57;;
8319;SDS011;4197;42.130;24.746;2022-08-20T00:49:20;11.13;;;9.55;;
8319;SDS011;4197;42.130;24.746;2022-08-20T00:51:52;10.82;;;8.40;;
8319;SDS011;4197;42.130;24.746;2022-08-20T00:54:26;10.43;;;8.73;;
8319;SDS011;4197;42.130;24.746;2022-08-20T00:56:58;13.48;;;9.80;;
8319;SDS011;4197;42.130;24.746;2022-08-20T00:59:30;10.90;;;9.55;;
8319;SDS011;4197;42.130;24.746;2022-08-20T01:02:00;10.52;;;8.32;;
8319;SDS011;4197;42.130;24.746;2022-08-20T01:04:31;11.75;;;8.85;;
8319;SDS011;4197;42.130;24.746;2022-08-20T01:07:01;12.88;;;8.27;;
8319;SDS011;4197;42.130;24.746;2022-08-20T01:09:33;12.68;;;9.15;;
8319;SDS011;4197;42.130;24.746;2022-08-20T01:12:23;11.77;;;8.75;;
8319;SDS011;4197;42.130;24.746;2022-08-20T01:14:52;11.32;;;8.77;;
8319;SDS011;4197;42.130;24.746;2022-08-20T01:17:22;11.10;;;8.38;;
8319;SDS011;4197;42.130;24.746;2022-08-20T01:19:53;14.52;;;8.73;;
8319;SDS011;4197;42.130;24.746;2022-08-20T01:22:27;12.18;;;9.90;;
8319;SDS011;4197;42.130;24.746;2022-08-20T01:25:24;13.43;;;9.65;;
8319;SDS011;4197;42.130;24.746;2022-08-20T01:28:01;14.45;;;9.82;;
8319;SDS011;4197;42.130;24.746;2022-08-20T01:30:30;11.77;;;9.40;;
8319;SDS011;4197;42.130;24.746;2022-08-20T01:33:00;11.85;;;9.82;;
8319;SDS011;4197;42.130;24.746;2022-08-20T01:35:28;14.52;;;10.32;;
8319;SDS011;4197;42.130;24.746;2022-08-20T01:38:01;12.80;;;9.82;;
8319;SDS011;4197;42.130;24.746;2022-08-20T01:40:35;10.52;;;9.23;;
8319;SDS011;4197;42.130;24.746;2022-08-20T01:43:16;13.52;;;9.73;;
8319;SDS011;4197;42.130;24.746;2022-08-20T01:45:47;9.95;;;8.55;;
8319;SDS011;4197;42.130;24.746;2022-08-20T01:48:15;10.38;;;9.20;;
8319;SDS011;4197;42.130;24.746;2022-08-20T01:50:52;9.75;;;8.75;;
8319;SDS011;4197;42.130;24.746;2022-08-20T01:53:29;12.15;;;9.05;;
8319;SDS011;4197;42.130;24.746;2022-08-20T01:56:00;13.75;;;9.73;;
8319;SDS011;4197;42.130;24.746;2022-08-20T01:58:31;11.88;;;8.55;;
8319;SDS011;4197;42.130;24.746;2022-08-20T02:01:02;10.80;;;9.30;;
8319;SDS011;4197;42.130;24.746;2022-08-20T02:03:30;10.05;;;9.10;;
8319;SDS011;4197;42.130;24.746;2022-08-20T02:06:06;10.82;;;8.95;;
8319;SDS011;4197;42.130;24.746;2022-08-20T02:08:35;9.20;;;8.35;;
8319;SDS011;4197;42.130;24.746;2022-08-20T02:11:04;13.90;;;8.85;;
8319;SDS011;4197;42.130;24.746;2022-08-20T02:13:33;10.48;;;9.15;;
8319;SDS011;4197;42.130;24.746;2022-08-20T02:16:01;11.85;;;8.93;;
8319;SDS011;4197;42.130;24.746;2022-08-20T02:18:31;11.05;;;9.50;;
8319;SDS011;4197;42.130;24.746;2022-08-20T02:20:59;11.73;;;9.95;;
8319;SDS011;4197;42.130;24.746;2022-08-20T02:23:28;10.90;;;9.77;;
8319;SDS011;4197;42.130;24.746;2022-08-20T02:25:56;14.43;;;10.18;;
8319;SDS011;4197;42.130;24.746;2022-08-20T02:28:25;13.32;;;10.40;;
8319;SDS011;4197;42.130;24.746;2022-08-20T02:30:55;11.75;;;9.60;;
8319;SDS011;4197;42.130;24.746;2022-08-20T02:33:25;11.80;;;9.95;;
8319;SDS011;4197;42.130;24.746;2022-08-20T02:35:54;11.90;;;10.23;;
8319;SDS011;4197;42.130;24.746;2022-08-20T02:38:23;13.68;;;9.82;;
8319;SDS011;4197;42.130;24.746;2022-08-20T02:40:51;11.55;;;10.00;;
8319;SDS011;4197;42.130;24.746;2022-08-20T02:43:19;10.82;;;9.82;;
8319;SDS011;4197;42.130;24.746;2022-08-20T02:45:48;12.43;;;9.32;;
8319;SDS011;4197;42.130;24.746;2022-08-20T02:48:19;13.40;;;9.70;;
8319;SDS011;4197;42.130;24.746;2022-08-20T02:50:49;11.75;;;9.63;;
8319;SDS011;4197;42.130;24.746;2022-08-20T02:53:19;10.88;;;9.70;;
8319;SDS011;4197;42.130;24.746;2022-08-20T02:55:47;13.05;;;9.70;;
8319;SDS011;4197;42.130;24.746;2022-08-20T02:58:16;16.17;;;10.10;;
8319;SDS011;4197;42.130;24.746;2022-08-20T03:00:45;12.38;;;10.15;;
8319;SDS011;4197;42.130;24.746;2022-08-20T03:03:14;13.23;;;10.77;;
8319;SDS011;4197;42.130;24.746;2022-08-20T03:05:50;14.32;;;10.50;;
8319;SDS011;4197;42.130;24.746;2022-08-20T03:08:19;12.70;;;10.23;;
8319;SDS011;4197;42.130;24.746;2022-08-20T03:10:49;11.90;;;9.35;;
8319;SDS011;4197;42.130;24.746;2022-08-20T03:13:18;12.98;;;10.30;;
8319;SDS011;4197;42.130;24.746;2022-08-20T03:15:48;13.25;;;10.52;;
8319;SDS011;4197;42.130;24.746;2022-08-20T03:18:24;13.63;;;10.10;;
8319;SDS011;4197;42.130;24.746;2022-08-20T03:20:55;14.23;;;10.57;;
8319;SDS011;4197;42.130;24.746;2022-08-20T03:23:23;19.35;;;10.77;;
8319;SDS011;4197;42.130;24.746;2022-08-20T03:25:52;18.33;;;11.80;;
8319;SDS011;4197;42.130;24.746;2022-08-20T03:28:20;17.27;;;11.45;;
8319;SDS011;4197;42.130;24.746;2022-08-20T03:30:48;13.80;;;10.90;;
8319;SDS011;4197;42.130;24.746;2022-08-20T03:33:18;15.73;;;11.32;;
8319;SDS011;4197;42.130;24.746;2022-08-20T03:35:48;17.85;;;11.90;;
8319;SDS011;4197;42.130;24.746;2022-08-20T03:38:18;17.15;;;11.25;;
8319;SDS011;4197;42.130;24.746;2022-08-20T03:41:00;22.20;;;12.80;;
8319;SDS011;4197;42.130;24.746;2022-08-20T03:43:29;18.65;;;12.18;;
8319;SDS011;4197;42.130;24.746;2022-08-20T03:45:58;17.60;;;12.93;;
8319;SDS011;4197;42.130;24.746;2022-08-20T03:48:26;17.73;;;11.70;;
8319;SDS011;4197;42.130;24.746;2022-08-20T03:50:54;18.40;;;11.10;;
8319;SDS011;4197;42.130;24.746;2022-08-20T03:53:27;12.15;;;10.93;;
8319;SDS011;4197;42.130;24.746;2022-08-20T03:55:57;17.58;;;14.30;;
8319;SDS011;4197;42.130;24.746;2022-08-20T03:58:30;14.23;;;10.60;;
8319;SDS011;4197;42.130;24.746;2022-08-20T04:01:02;17.63;;;11.48;;
8319;SDS011;4197;42.130;24.746;2022-08-20T04:03:53;11.73;;;10.27;;
8319;SDS011;4197;42.130;24.746;2022-08-20T04:06:24;17.55;;;10.80;;
8319;SDS011;4197;42.130;24.746;2022-08-20T04:08:54;14.52;;;10.32;;
8319;SDS011;4197;42.130;24.746;2022-08-20T04:11:23;16.63;;;10.18;;
8319;SDS011;4197;42.130;24.746;2022-08-20T04:13:51;15.45;;;10.10;;
8319;SDS011;4197;42.130;24.746;2022-08-20T04:16:19;11.82;;;9.65;;
8319;SDS011;4197;42.130;24.746;2022-08-20T04:18:48;13.55;;;10.88;;
8319;SDS011;4197;42.130;24.746;2022-08-20T04:21:28;12.57;;;10.07;;
8319;SDS011;4197;42.130;24.746;2022-08-20T04:24:00;10.93;;;9.82;;
8319;SDS011;4197;42.130;24.746;2022-08-20T04:26:29;12.07;;;10.25;;
8319;SDS011;4197;42.130;24.746;2022-08-20T04:28:57;14.27;;;9.55;;
8319;SDS011;4197;42.130;24.746;2022-08-20T04:31:25;12.07;;;10.38;;
8319;SDS011;4197;42.130;24.746;2022-08-20T04:33:59;14.07;;;10.52;;
8319;SDS011;4197;42.130;24.746;2022-08-20T04:36:28;15.15;;;9.85;;
8319;SDS011;4197;42.130;24.746;2022-08-20T04:38:56;11.75;;;10.07;;
8319;SDS011;4197;42.130;24.746;2022-08-20T04:41:26;20.52;;;10.57;;
8319;SDS011;4197;42.130;24.746;2022-08-20T04:43:54;16.60;;;11.20;;
8319;SDS011;4197;42.130;24.746;2022-08-20T04:46:24;14.45;;;11.00;;
8319;SDS011;4197;42.130;24.746;2022-08-20T04:48:54;17.02;;;14.20;;
8319;SDS011;4197;42.130;24.746;2022-08-20T04:51:23;13.68;;;11.38;;
8319;SDS011;4197;42.130;24.746;2022-08-20T04:53:52;16.73;;;12.60;;
8319;SDS011;4197;42.130;24.746;2022-08-20T04:56:23;13.63;;;11.30;;
8319;SDS011;4197;42.130;24.746;2022-08-20T04:58:54;16.63;;;11.30;;
8319;SDS011;4197;42.130;24.746;2022-08-20T05:01:24;14.25;;;10.75;;
8319;SDS011;4197;42.130;24.746;2022-08-20T05:03:53;16.88;;;10.13;;
8319;SDS011;4197;42.130;24.746;2022-08-20T05:06:23;16.52;;;12.65;;
8319;SDS011;4197;42.130;24.746;2022-08-20T05:08:54;15.27;;;13.65;;
8319;SDS011;4197;42.130;24.746;2022-08-20T05:11:24;15.10;;;13.05;;
8319;SDS011;4197;42.130;24.746;2022-08-20T05:14:03;15.48;;;10.70;;
8319;SDS011;4197;42.130;24.746;2022-08-20T05:16:34;21.42;;;13.10;;
8319;SDS011;4197;42.130;24.746;2022-08-20T05:19:07;16.17;;;11.35;;
8319;SDS011;4197;42.130;24.746;2022-08-20T05:21:37;16.08;;;11.93;;
8319;SDS011;4197;42.130;24.746;2022-08-20T05:24:06;18.70;;;11.57;;
8319;SDS011;4197;42.130;24.746;2022-08-20T05:26:35;21.63;;;11.68;;
8319;SDS011;4197;42.130;24.746;2022-08-20T05:29:05;12.75;;;11.27;;
8319;SDS011;4197;42.130;24.746;2022-08-20T05:31:33;14.20;;;11.40;;
8319;SDS011;4197;42.130;24.746;2022-08-20T05:34:04;17.08;;;11.95;;
8319;SDS011;4197;42.130;24.746;2022-08-20T05:36:37;18.42;;;12.25;;
8319;SDS011;4197;42.130;24.746;2022-08-20T05:39:06;14.63;;;12.05;;
8319;SDS011;4197;42.130;24.746;2022-08-20T05:41:35;15.43;;;11.60;;
8319;SDS011;4197;42.130;24.746;2022-08-20T05:44:05;19.38;;;11.80;;
8319;SDS011;4197;42.130;24.746;2022-08-20T05:46:36;18.65;;;12.82;;
8319;SDS011;4197;42.130;24.746;2022-08-20T05:49:06;16.30;;;11.73;;
8319;SDS011;4197;42.130;24.746;2022-08-20T05:51:34;18.92;;;12.88;;
8319;SDS011;4197;42.130;24.746;2022-08-20T05:54:04;16.67;;;12.82;;
8319;SDS011;4197;42.130;24.746;2022-08-20T05:56:33;16.77;;;12.77;;
8319;SDS011;4197;42.130;24.746;2022-08-20T05:59:03;17.42;;;11.98;;
8319;SDS011;4197;42.130;24.746;2022-08-20T06:01:36;18.92;;;12.80;;
8319;SDS011;4197;42.130;24.746;2022-08-20T06:04:06;15.90;;;12.02;;
8319;SDS011;4197;42.130;24.746;2022-08-20T06:06:54;14.63;;;11.52;;
8319;SDS011;4197;42.130;24.746;2022-08-20T06:09:25;23.30;;;12.52;;
8319;SDS011;4197;42.130;24.746;2022-08-20T06:11:58;17.42;;;12.10;;
8319;SDS011;4197;42.130;24.746;2022-08-20T06:14:28;14.15;;;11.80;;
8319;SDS011;4197;42.130;24.746;2022-08-20T06:17:02;15.20;;;11.35;;
8319;SDS011;4197;42.130;24.746;2022-08-20T06:19:32;14.43;;;11.68;;
8319;SDS011;4197;42.130;24.746;2022-08-20T06:22:00;17.50;;;11.10;;
8319;SDS011;4197;42.130;24.746;2022-08-20T06:24:45;17.60;;;11.73;;
8319;SDS011;4197;42.130;24.746;2022-08-20T06:27:14;20.42;;;11.38;;
8319;SDS011;4197;42.130;24.746;2022-08-20T06:29:43;15.38;;;11.63;;
8319;SDS011;4197;42.130;24.746;2022-08-20T06:32:14;15.73;;;11.38;;
8319;SDS011;4197;42.130;24.746;2022-08-20T06:34:42;14.02;;;11.10;;
8319;SDS011;4197;42.130;24.746;2022-08-20T06:37:17;21.23;;;12.05;;
8319;SDS011;4197;42.130;24.746;2022-08-20T06:39:47;16.52;;;11.40;;
8319;SDS011;4197;42.130;24.746;2022-08-20T06:42:16;17.00;;;11.15;;
8319;SDS011;4197;42.130;24.746;2022-08-20T06:44:46;12.65;;;10.60;;
8319;SDS011;4197;42.130;24.746;2022-08-20T06:47:17;16.92;;;10.55;;
8319;SDS011;4197;42.130;24.746;2022-08-20T06:49:47;11.65;;;10.43;;
8319;SDS011;4197;42.130;24.746;2022-08-20T06:52:16;16.27;;;10.73;;
8319;SDS011;4197;42.130;24.746;2022-08-20T06:54:44;19.25;;;11.63;;
8319;SDS011;4197;42.130;24.746;2022-08-20T06:57:13;19.58;;;12.30;;
8319;SDS011;4197;42.130;24.746;2022-08-20T06:59:42;17.77;;;10.77;;
8319;SDS011;4197;42.130;24.746;2022-08-20T07:02:20;23.52;;;13.63;;
8319;SDS011;4197;42.130;24.746;2022-08-20T07:04:55;22.73;;;11.85;;
8319;SDS011;4197;42.130;24.746;2022-08-20T07:07:24;15.75;;;11.60;;
8319;SDS011;4197;42.130;24.746;2022-08-20T07:09:57;17.35;;;12.02;;
8319;SDS011;4197;42.130;24.746;2022-08-20T07:12:26;15.43;;;11.13;;
8319;SDS011;4197;42.130;24.746;2022-08-20T07:14:55;14.27;;;10.48;;
8319;SDS011;4197;42.130;24.746;2022-08-20T07:17:24;18.35;;;10.60;;
8319;SDS011;4197;42.130;24.746;2022-08-20T07:19:53;14.40;;;10.50;;
8319;SDS011;4197;42.130;24.746;2022-08-20T07:22:21;22.00;;;16.05;;
8319;SDS011;4197;42.130;24.746;2022-08-20T07:24:50;15.77;;;12.40;;
8319;SDS011;4197;42.130;24.746;2022-08-20T07:27:19;18.48;;;11.30;;
8319;SDS011;4197;42.130;24.746;2022-08-20T07:29:50;17.30;;;11.35;;
8319;SDS011;4197;42.130;24.746;2022-08-20T07:32:42;17.23;;;10.98;;
8319;SDS011;4197;42.130;24.746;2022-08-20T07:35:13;15.23;;;11.30;;
8319;SDS011;4197;42.130;24.746;2022-08-20T07:37:44;15.00;;;11.52;;
8319;SDS011;4197;42.130;24.746;2022-08-20T07:40:16;16.98;;;11.18;;
8319;SDS011;4197;42.130;24.746;2022-08-20T07:42:51;16.15;;;11.02;;
8319;SDS011;4197;42.130;24.746;2022-08-20T07:45:20;13.40;;;10.50;;
8319;SDS011;4197;42.130;24.746;2022-08-20T07:47:50;19.27;;;11.35;;
8319;SDS011;4197;42.130;24.746;2022-08-20T07:50:21;26.30;;;11.85;;
8319;SDS011;4197;42.130;24.746;2022-08-20T07:52:51;14.05;;;11.35;;
8319;SDS011;4197;42.130;24.746;2022-08-20T07:55:20;19.88;;;10.65;;
8319;SDS011;4197;42.130;24.746;2022-08-20T07:57:48;15.82;;;11.80;;
8319;SDS011;4197;42.130;24.746;2022-08-20T08:00:18;14.88;;;11.43;;
8319;SDS011;4197;42.130;24.746;2022-08-20T08:02:48;18.08;;;11.07;;
8319;SDS011;4197;42.130;24.746;2022-08-20T08:05:17;20.90;;;11.00;;
8319;SDS011;4197;42.130;24.746;2022-08-20T08:07:46;17.75;;;10.52;;
8319;SDS011;4197;42.130;24.746;2022-08-20T08:10:15;13.60;;;11.27;;
8319;SDS011;4197;42.130;24.746;2022-08-20T08:12:48;15.00;;;11.13;;
8319;SDS011;4197;42.130;24.746;2022-08-20T08:15:20;21.73;;;11.13;;
8319;SDS011;4197;42.130;24.746;2022-08-20T08:17:51;19.67;;;11.13;;
8319;SDS011;4197;42.130;24.746;2022-08-20T08:20:22;17.05;;;12.70;;
8319;SDS011;4197;42.130;24.746;2022-08-20T08:22:50;13.48;;;9.60;;
8319;SDS011;4197;42.130;24.746;2022-08-20T08:25:19;14.68;;;11.30;;
8319;SDS011;4197;42.130;24.746;2022-08-20T08:27:47;16.70;;;10.75;;
8319;SDS011;4197;42.130;24.746;2022-08-20T08:30:33;19.65;;;11.07;;
8319;SDS011;4197;42.130;24.746;2022-08-20T08:33:01;15.63;;;10.95;;
8319;SDS011;4197;42.130;24.746;2022-08-20T08:35:48;16.77;;;10.80;;
8319;SDS011;4197;42.130;24.746;2022-08-20T08:38:17;16.55;;;10.75;;
8319;SDS011;4197;42.130;24.746;2022-08-20T08:40:45;14.32;;;9.90;;
8319;SDS011;4197;42.130;24.746;2022-08-20T08:43:25;13.85;;;10.30;;
8319;SDS011;4197;42.130;24.746;2022-08-20T08:45:58;15.20;;;11.05;;
8319;SDS011;4197;42.130;24.746;2022-08-20T08:48:31;13.20;;;9.77;;
8319;SDS011;4197;42.130;24.746;2022-08-20T08:51:03;13.07;;;9.65;;
8319;SDS011;4197;42.130;24.746;2022-08-20T08:53:39;11.75;;;9.65;;
8319;SDS011;4197;42.130;24.746;2022-08-20T08:56:13;14.82;;;9.68;;
8319;SDS011;4197;42.130;24.746;2022-08-20T08:58:42;14.18;;;9.63;;
8319;SDS011;4197;42.130;24.746;2022-08-20T09:01:10;12.10;;;9.20;;
8319;SDS011;4197;42.130;24.746;2022-08-20T09:04:00;11.40;;;9.73;;
8319;SDS011;4197;42.130;24.746;2022-08-20T09:06:32;13.45;;;9.48;;
8319;SDS011;4197;42.130;24.746;2022-08-20T09:09:02;11.43;;;10.25;;
8319;SDS011;4197;42.130;24.746;2022-08-20T09:11:35;11.93;;;9.45;;
8319;SDS011;4197;42.130;24.746;2022-08-20T09:14:13;11.95;;;9.77;;
8319;SDS011;4197;42.130;24.746;2022-08-20T09:16:41;13.02;;;9.27;;
8319;SDS011;4197;42.130;24.746;2022-08-20T09:19:18;14.63;;;9.32;;
8319;SDS011;4197;42.130;24.746;2022-08-20T09:21:48;11.57;;;9.30;;
8319;SDS011;4197;42.130;24.746;2022-08-20T09:24:16;14.27;;;9.82;;
8319;SDS011;4197;42.130;24.746;2022-08-20T09:26:44;14.38;;;9.32;;
8319;SDS011;4197;42.130;24.746;2022-08-20T09:29:13;17.40;;;9.75;;
8319;SDS011;4197;42.130;24.746;2022-08-20T09:31:42;11.90;;;9.00;;
8319;SDS011;4197;42.130;24.746;2022-08-20T09:34:11;16.17;;;9.30;;
8319;SDS011;4197;42.130;24.746;2022-08-20T09:36:40;13.02;;;9.30;;
8319;SDS011;4197;42.130;24.746;2022-08-20T09:39:09;16.58;;;9.52;;
8319;SDS011;4197;42.130;24.746;2022-08-20T09:41:37;12.68;;;8.52;;
8319;SDS011;4197;42.130;24.746;2022-08-20T09:44:06;10.77;;;8.80;;
8319;SDS011;4197;42.130;24.746;2022-08-20T09:46:35;11.50;;;8.90;;
8319;SDS011;4197;42.130;24.746;2022-08-20T09:49:03;10.05;;;8.50;;
8319;SDS011;4197;42.130;24.746;2022-08-20T09:51:34;12.75;;;9.00;;
8319;SDS011;4197;42.130;24.746;2022-08-20T09:54:03;9.63;;;8.75;;
8319;SDS011;4197;42.130;24.746;2022-08-20T09:56:34;12.05;;;9.30;;
8319;SDS011;4197;42.130;24.746;2022-08-20T09:59:02;10.65;;;9.13;;
8319;SDS011;4197;42.130;24.746;2022-08-20T10:01:30;12.07;;;8.63;;
8319;SDS011;4197;42.130;24.746;2022-08-20T10:04:00;14.18;;;9.13;;
8319;SDS011;4197;42.130;24.746;2022-08-20T10:06:28;14.02;;;8.68;;
8319;SDS011;4197;42.130;24.746;2022-08-20T10:09:02;10.23;;;9.05;;
8319;SDS011;4197;42.130;24.746;2022-08-20T10:11:30;11.02;;;9.23;;
8319;SDS011;4197;42.130;24.746;2022-08-20T10:14:00;13.40;;;9.15;;
8319;SDS011;4197;42.130;24.746;2022-08-20T10:16:28;13.77;;;9.32;;
8319;SDS011;4197;42.130;24.746;2022-08-20T10:18:57;13.95;;;8.82;;
8319;SDS011;4197;42.130;24.746;2022-08-20T10:21:25;11.68;;;8.27;;
8319;SDS011;4197;42.130;24.746;2022-08-20T10:23:54;11.73;;;8.98;;
8319;SDS011;4197;42.130;24.746;2022-08-20T10:26:22;10.77;;;9.55;;
8319;SDS011;4197;42.130;24.746;2022-08-20T10:28:50;11.98;;;9.82;;
8319;SDS011;4197;42.130;24.746;2022-08-20T10:31:20;12.55;;;8.63;;
8319;SDS011;4197;42.130;24.746;2022-08-20T10:33:49;13.13;;;8.90;;
8319;SDS011;4197;42.130;24.746;2022-08-20T10:36:17;10.55;;;9.38;;
8319;SDS011;4197;42.130;24.746;2022-08-20T10:38:45;14.02;;;8.88;;
8319;SDS011;4197;42.130;24.746;2022-08-20T10:41:15;10.30;;;8.13;;
8319;SDS011;4197;42.130;24.746;2022-08-20T10:43:43;14.70;;;9.05;;
8319;SDS011;4197;42.130;24.746;2022-08-20T10:46:11;13.40;;;8.68;;
8319;SDS011;4197;42.130;24.746;2022-08-20T10:48:41;13.20;;;8.27;;
8319;SDS011;4197;42.130;24.746;2022-08-20T10:51:09;12.05;;;8.43;;
8319;SDS011;4197;42.130;24.746;2022-08-20T10:53:38;11.13;;;8.43;;
8319;SDS011;4197;42.130;24.746;2022-08-20T10:56:06;12.43;;;8.40;;
8319;SDS011;4197;42.130;24.746;2022-08-20T10:58:40;9.93;;;7.65;;
8319;SDS011;4197;42.130;24.746;2022-08-20T11:01:10;13.60;;;7.85;;
8319;SDS011;4197;42.130;24.746;2022-08-20T11:03:58;13.18;;;6.85;;
8319;SDS011;4197;42.130;24.746;2022-08-20T11:06:26;10.90;;;7.28;;
8319;SDS011;4197;42.130;24.746;2022-08-20T11:08:54;14.32;;;7.03;;
8319;SDS011;4197;42.130;24.746;2022-08-20T11:11:23;9.43;;;6.95;;
8319;SDS011;4197;42.130;24.746;2022-08-20T11:13:51;9.35;;;6.93;;
8319;SDS011;4197;42.130;24.746;2022-08-20T11:16:19;11.18;;;6.97;;
8319;SDS011;4197;42.130;24.746;2022-08-20T11:18:48;8.18;;;6.20;;
8319;SDS011;4197;42.130;24.746;2022-08-20T11:21:17;8.93;;;6.40;;
8319;SDS011;4197;42.130;24.746;2022-08-20T11:23:45;11.15;;;6.13;;
8319;SDS011;4197;42.130;24.746;2022-08-20T11:26:21;8.82;;;7.03;;
8319;SDS011;4197;42.130;24.746;2022-08-20T11:28:51;8.73;;;7.25;;
8319;SDS011;4197;42.130;24.746;2022-08-20T11:31:19;11.55;;;6.82;;
8319;SDS011;4197;42.130;24.746;2022-08-20T11:33:48;9.60;;;6.75;;
8319;SDS011;4197;42.130;24.746;2022-08-20T11:36:17;9.55;;;6.65;;
8319;SDS011;4197;42.130;24.746;2022-08-20T11:38:46;8.95;;;6.60;;
8319;SDS011;4197;42.130;24.746;2022-08-20T11:41:14;11.07;;;6.32;;
8319;SDS011;4197;42.130;24.746;2022-08-20T11:43:43;10.05;;;6.40;;
8319;SDS011;4197;42.130;24.746;2022-08-20T11:46:31;12.23;;;6.68;;
8319;SDS011;4197;42.130;24.746;2022-08-20T11:48:59;10.15;;;6.30;;
8319;SDS011;4197;42.130;24.746;2022-08-20T11:51:29;9.25;;;6.75;;
8319;SDS011;4197;42.130;24.746;2022-08-20T11:54:15;9.70;;;6.68;;
8319;SDS011;4197;42.130;24.746;2022-08-20T11:56:43;10.82;;;6.15;;
8319;SDS011;4197;42.130;24.746;2022-08-20T11:59:11;8.20;;;6.47;;
8319;SDS011;4197;42.130;24.746;2022-08-20T12:01:39;7.85;;;6.03;;
8319;SDS011;4197;42.130;24.746;2022-08-20T12:04:28;6.40;;;5.80;;
8319;SDS011;4197;42.130;24.746;2022-08-20T12:07:11;8.57;;;6.55;;
8319;SDS011;4197;42.130;24.746;2022-08-20T12:09:41;10.57;;;6.30;;
8319;SDS011;4197;42.130;24.746;2022-08-20T12:12:17;8.90;;;6.50;;
8319;SDS011;4197;42.130;24.746;2022-08-20T12:14:46;9.93;;;6.22;;
8319;SDS011;4197;42.130;24.746;2022-08-20T12:17:16;7.13;;;5.85;;
8319;SDS011;4197;42.130;24.746;2022-08-20T12:19:46;7.80;;;6.55;;
8319;SDS011;4197;42.130;24.746;2022-08-20T12:22:16;11.07;;;6.68;;
8319;SDS011;4197;42.130;24.746;2022-08-20T12:24:50;7.07;;;6.07;;
8319;SDS011;4197;42.130;24.746;2022-08-20T12:27:21;8.15;;;5.50;;
8319;SDS011;4197;42.130;24.746;2022-08-20T12:29:51;7.55;;;5.60;;
8319;SDS011;4197;42.130;24.746;2022-08-20T12:32:21;9.95;;;5.63;;
8319;SDS011;4197;42.130;24.746;2022-08-20T12:34:50;7.00;;;6.10;;
8319;SDS011;4197;42.130;24.746;2022-08-20T12:37:21;8.13;;;6.05;;
8319;SDS011;4197;42.130;24.746;2022-08-20T12:39:52;10.85;;;5.95;;
8319;SDS011;4197;42.130;24.746;2022-08-20T12:42:22;7.78;;;5.82;;
8319;SDS011;4197;42.130;24.746;2022-08-20T12:44:51;7.60;;;5.97;;
8319;SDS011;4197;42.130;24.746;2022-08-20T12:47:20;11.55;;;5.80;;
8319;SDS011;4197;42.130;24.746;2022-08-20T12:49:50;11.02;;;6.35;;
8319;SDS011;4197;42.130;24.746;2022-08-20T12:52:23;6.13;;;5.60;;
8319;SDS011;4197;42.130;24.746;2022-08-20T12:54:52;10.05;;;5.90;;
8319;SDS011;4197;42.130;24.746;2022-08-20T12:57:22;13.02;;;6.32;;
8319;SDS011;4197;42.130;24.746;2022-08-20T12:59:54;7.28;;;5.78;;
8319;SDS011;4197;42.130;24.746;2022-08-20T13:02:24;9.80;;;5.15;;
8319;SDS011;4197;42.130;24.746;2022-08-20T13:04:52;8.27;;;6.05;;
8319;SDS011;4197;42.130;24.746;2022-08-20T13:07:25;7.53;;;5.82;;
8319;SDS011;4197;42.130;24.746;2022-08-20T13:09:53;8.35;;;5.43;;
8319;SDS011;4197;42.130;24.746;2022-08-20T13:12:21;6.28;;;5.68;;
8319;SDS011;4197;42.130;24.746;2022-08-20T13:14:49;8.63;;;5.65;;
8319;SDS011;4197;42.130;24.746;2022-08-20T13:17:18;7.85;;;5.57;;
8319;SDS011;4197;42.130;24.746;2022-08-20T13:20:04;7.47;;;5.78;;
8319;SDS011;4197;42.130;24.746;2022-08-20T13:22:36;7.82;;;5.95;;
8319;SDS011;4197;42.130;24.746;2022-08-20T13:25:05;8.25;;;5.32;;
8319;SDS011;4197;42.130;24.746;2022-08-20T13:27:35;10.57;;;6.03;;
8319;SDS011;4197;42.130;24.746;2022-08-20T13:30:05;9.23;;;5.57;;
8319;SDS011;4197;42.130;24.746;2022-08-20T13:32:35;6.47;;;5.50;;
8319;SDS011;4197;42.130;24.746;2022-08-20T13:35:03;12.90;;;6.07;;
8319;SDS011;4197;42.130;24.746;2022-08-20T13:37:32;8.75;;;5.82;;
8319;SDS011;4197;42.130;24.746;2022-08-20T13:40:03;7.05;;;5.50;;
8319;SDS011;4197;42.130;24.746;2022-08-20T13:42:33;7.43;;;5.55;;
8319;SDS011;4197;42.130;24.746;2022-08-20T13:45:02;7.95;;;5.90;;
8319;SDS011;4197;42.130;24.746;2022-08-20T13:47:32;7.78;;;5.72;;
8319;SDS011;4197;42.130;24.746;2022-08-20T13:50:03;12.73;;;5.85;;
8319;SDS011;4197;42.130;24.746;2022-08-20T13:52:33;12.07;;;5.85;;
8319;SDS011;4197;42.130;24.746;2022-08-20T13:55:04;12.05;;;5.68;;
8319;SDS011;4197;42.130;24.746;2022-08-20T13:57:35;11.27;;;5.78;;
8319;SDS011;4197;42.130;24.746;2022-08-20T14:00:04;6.95;;;5.95;;
8319;SDS011;4197;42.130;24.746;2022-08-20T14:02:37;6.57;;;5.18;;
8319;SDS011;4197;42.130;24.746;2022-08-20T14:05:05;8.02;;;5.50;;
8319;SDS011;4197;42.130;24.746;2022-08-20T14:07:35;7.40;;;5.25;;
8319;SDS011;4197;42.130;24.746;2022-08-20T14:10:06;10.80;;;6.07;;
8319;SDS011;4197;42.130;24.746;2022-08-20T14:12:37;5.50;;;4.88;;
8319;SDS011;4197;42.130;24.746;2022-08-20T14:15:06;7.95;;;5.20;;
8319;SDS011;4197;42.130;24.746;2022-08-20T14:17:36;7.18;;;5.20;;
8319;SDS011;4197;42.130;24.746;2022-08-20T14:20:06;8.68;;;5.32;;
8319;SDS011;4197;42.130;24.746;2022-08-20T14:22:37;7.05;;;5.50;;
8319;SDS011;4197;42.130;24.746;2022-08-20T14:25:08;10.77;;;5.63;;
8319;SDS011;4197;42.130;24.746;2022-08-20T14:27:38;10.85;;;5.55;;
8319;SDS011;4197;42.130;24.746;2022-08-20T14:30:08;8.82;;;5.53;;
8319;SDS011;4197;42.130;24.746;2022-08-20T14:32:38;9.10;;;5.28;;
8319;SDS011;4197;42.130;24.746;2022-08-20T14:35:07;6.15;;;4.95;;
8319;SDS011;4197;42.130;24.746;2022-08-20T14:37:36;7.38;;;4.85;;
8319;SDS011;4197;42.130;24.746;2022-08-20T14:40:08;7.68;;;5.70;;
8319;SDS011;4197;42.130;24.746;2022-08-20T14:42:38;7.45;;;5.20;;
8319;SDS011;4197;42.130;24.746;2022-08-20T14:45:09;13.63;;;5.50;;
8319;SDS011;4197;42.130;24.746;2022-08-20T14:47:41;6.18;;;5.07;;
8319;SDS011;4197;42.130;24.746;2022-08-20T14:50:11;6.40;;;4.82;;
8319;SDS011;4197;42.130;24.746;2022-08-20T14:52:41;8.43;;;5.03;;
8319;SDS011;4197;42.130;24.746;2022-08-20T14:55:12;9.00;;;5.28;;
8319;SDS011;4197;42.130;24.746;2022-08-20T14:57:41;8.65;;;4.57;;
8319;SDS011;4197;42.130;24.746;2022-08-20T15:00:10;6.00;;;5.40;;
8319;SDS011;4197;42.130;24.746;2022-08-20T15:02:41;5.82;;;5.18;;
8319;SDS011;4197;42.130;24.746;2022-08-20T15:05:09;9.77;;;5.22;;
8319;SDS011;4197;42.130;24.746;2022-08-20T15:07:39;8.90;;;5.15;;